Aviation Digital Data Service (ADDS)

Output produced by METARs form (1158 UTC 08 December 2016)
found at http://aviationweather.gov/adds/metars/
 
KFAY 081123Z 0812/0912 VRB03KT P6SM SCT007 OVC015 
     TEMPO 0812/0814 5SM BR OVC007 
     FM081400 27007KT P6SM OVC025 
     FM081700 31008G16KT P6SM SCT040 BKN150 
     FM090000 32006KT P6SM BKN250